Time;durP1;ratioP1;P1;durP2;ratioP2;P2;SDS_P1;SDS_P2;PMS_P1;PMS_P2;Temp;Humidity;BMP_temperature;BMP_pressure;BME280_temperature;BME280_humidity;BME280_pressure;Samples;Min_cycle;Max_cycle;Signal;HPM_P1;HPM_P2
2021/05/07 11:14:46;;;;;;;5.85;2.50;;;11.60;90.70;;;;;;6139493;23;20018;-96
2021/05/07 11:17:17;;;;;;;;;;;14.70;67.80;;;;;;6097145;23;20024;-93
2021/05/07 11:19:49;;;;;;;10.88;2.58;;;15.80;57.90;;;;;;6097642;23;19928;-95
2021/05/07 11:22:17;;;;;;;4.50;2.85;;;16.20;55.00;;;;;;6123946;23;20014;-95
2021/05/07 11:24:47;;;;;;;8.40;3.15;;;15.20;55.70;;;;;;6124626;23;20460;-96
2021/05/07 11:27:20;;;;;;;5.57;3.05;;;14.20;59.60;;;;;;6125252;23;20021;-96
2021/05/07 11:29:49;;;;;;;6.65;3.10;;;14.30;58.90;;;;;;6120935;23;20053;-96
2021/05/07 11:32:18;;;;;;;4.20;2.47;;;13.70;57.50;;;;;;6102794;23;20081;-95
2021/05/07 11:37:58;;;;;;;5.78;2.22;;;12.60;59.50;;;;;;6119675;23;20010;-83
2021/05/07 12:14:36;;;;;;;6.60;2.55;;;11.40;70.60;;;;;;6042164;23;19921;-96
2021/05/07 12:22:53;;;;;;;4.15;2.20;;;17.30;52.60;;;;;;6018916;23;20032;-85
2021/05/07 12:25:22;;;;;;;3.47;2.20;;;17.30;49.20;;;;;;5993949;23;20015;-96
2021/05/07 12:27:51;;;;;;;4.13;2.20;;;17.40;44.90;;;;;;6014404;23;20014;-96
2021/05/07 12:30:24;;;;;;;4.18;2.20;;;17.10;44.80;;;;;;6005390;23;20047;-96
2021/05/07 12:33:18;;;;;;;5.18;1.92;;;18.40;42.60;;;;;;5980938;23;20026;-95
2021/05/07 12:35:49;;;;;;;4.38;1.75;;;19.10;40.40;;;;;;6009233;23;20016;-96
2021/05/07 12:38:29;;;;;;;6.20;1.73;;;18.70;38.70;;;;;;6035253;23;20022;-96
2021/05/07 12:41:03;;;;;;;3.90;2.08;;;19.10;39.30;;;;;;5981869;23;20023;-96
2021/05/07 12:43:34;;;;;;;3.17;1.67;;;18.70;39.00;;;;;;6007371;23;20015;-95
2021/05/07 12:46:06;;;;;;;4.30;2.33;;;18.40;39.30;;;;;;6004100;23;20258;-93
2021/05/07 12:48:34;;;;;;;5.97;1.80;;;18.50;39.90;;;;;;6011874;23;20023;-95
2021/05/07 12:51:07;;;;;;;6.82;2.05;;;18.40;40.10;;;;;;6004516;23;21359;-96
2021/05/07 12:53:39;;;;;;;4.22;1.70;;;17.30;41.10;;;;;;6044081;23;20283;-96
2021/05/07 12:56:09;;;;;;;3.97;2.40;;;16.70;42.80;;;;;;6068800;23;20019;-96
2021/05/07 12:58:40;;;;;;;3.97;2.08;;;17.00;42.30;;;;;;6048375;23;20066;-96
2021/05/07 13:01:11;;;;;;;8.23;2.63;;;17.60;41.30;;;;;;6071356;23;20007;-96
2021/05/07 13:03:40;;;;;;;4.05;2.50;;;19.30;39.60;;;;;;6045594;23;20014;-95
2021/05/07 13:06:12;;;;;;;4.85;2.55;;;18.90;38.20;;;;;;6043463;23;20026;-95
2021/05/07 13:08:40;;;;;;;5.63;2.90;;;17.90;39.70;;;;;;6066718;23;20003;-96
2021/05/07 13:11:16;;;;;;;7.85;3.00;;;17.00;41.10;;;;;;6095925;23;20006;-96
2021/05/07 13:13:50;;;;;;;8.18;2.88;;;16.70;42.20;;;;;;6048584;23;20054;-96
2021/05/07 13:16:19;;;;;;;6.55;2.45;;;15.80;42.50;;;;;;5984728;23;21401;-95
2021/05/07 13:18:52;;;;;;;4.63;2.55;;;16.00;42.90;;;;;;6015318;23;20053;-96
2021/05/07 13:24:16;;;;;;;4.90;2.45;;;15.40;44.60;;;;;;5966268;23;20014;-94
2021/05/07 13:26:47;;;;;;;5.05;2.60;;;16.10;44.90;;;;;;6073547;23;20010;-95
2021/05/07 13:29:15;;;;;;;3.78;2.03;;;18.30;41.50;;;;;;6068585;23;20022;-94
2021/05/07 13:31:49;;;;;;;3.63;1.98;;;20.80;38.00;;;;;;6069667;23;20017;-94
2021/05/07 13:34:17;;;;;;;4.28;1.92;;;22.60;33.80;;;;;;6045628;23;20017;-96
2021/05/07 13:36:47;;;;;;;3.53;1.75;;;21.20;32.80;;;;;;5968012;23;20017;-96
2021/05/07 13:39:15;;;;;;;8.75;2.33;;;18.60;35.90;;;;;;6045607;23;20011;-81
2021/05/07 13:53:31;;;;;;;9.80;2.60;;;16.70;42.60;;;;;;5962908;23;20003;-94
2021/05/07 14:08:04;;;;;;;4.88;3.00;;;12.70;87.90;;;;;;5955290;23;20219;-87
2021/05/07 14:10:35;;;;;;;2.90;1.80;;;13.50;86.30;;;;;;6019941;23;20027;-96
2021/05/07 14:13:07;;;;;;;3.40;1.88;;;15.40;71.10;;;;;;6018939;23;20022;-96
2021/05/07 14:15:53;;;;;;;4.03;2.00;;;17.40;61.70;;;;;;6042217;23;20007;-96
2021/05/07 14:18:23;;;;;;;5.70;2.10;;;19.00;53.40;;;;;;6036466;23;20055;-96
2021/05/07 14:20:53;;;;;;;4.50;1.95;;;18.40;51.70;;;;;;6054884;23;20022;-96
2021/05/07 14:23:28;;;;;;;2.40;1.40;;;18.50;53.20;;;;;;6037893;23;20011;-94
2021/05/07 14:26:08;;;;;;;3.72;1.48;;;20.10;50.30;;;;;;6044364;23;20018;-93
2021/05/07 14:28:53;;;;;;;6.13;1.63;;;22.10;44.00;;;;;;6021205;23;20014;-93
2021/05/07 14:31:29;;;;;;;4.32;1.45;;;23.50;39.90;;;;;;6065232;23;20015;-93
2021/05/07 14:34:19;;;;;;;4.28;1.83;;;24.80;37.70;;;;;;6015820;23;20011;-92
2021/05/07 14:36:57;;;;;;;3.05;1.73;;;25.70;36.60;;;;;;6037042;23;20015;-92
2021/05/07 14:39:33;;;;;;;;;;;26.50;34.50;;;;;;6033648;23;20015;-92
2021/05/07 14:42:09;;;;;;;6.35;2.40;;;26.80;34.30;;;;;;6081851;23;19928;-94
2021/05/07 14:44:39;;;;;;;3.08;1.65;;;27.40;33.30;;;;;;6010624;23;20015;-94
2021/05/07 14:47:14;;;;;;;6.35;1.60;;;26.40;33.10;;;;;;6037250;23;20019;-92
2021/05/07 14:49:48;;;;;;;3.85;1.60;;;26.30;32.90;;;;;;6015951;23;20256;-91
2021/05/07 14:52:16;;;;;;;4.60;1.60;;;26.00;33.30;;;;;;6010955;23;20019;-93
2021/05/07 14:54:46;;;;;;;2.63;1.40;;;26.70;33.20;;;;;;6037785;23;20011;-91
2021/05/07 14:57:33;;;;;;;4.97;1.70;;;26.30;31.70;;;;;;6016542;23;20015;-94
2021/05/07 15:00:06;;;;;;;4.97;1.77;;;23.50;34.70;;;;;;6036624;23;20019;-96
2021/05/07 15:02:34;;;;;;;5.63;2.05;;;20.80;37.50;;;;;;6033818;23;20011;-96
2021/05/07 15:05:02;;;;;;;5.45;1.92;;;18.90;41.30;;;;;;6015053;23;20015;-96
2021/05/07 15:07:33;;;;;;;2.78;1.50;;;18.60;42.60;;;;;;6014500;23;20015;-95
2021/05/07 15:10:03;;;;;;;2.47;1.40;;;19.40;40.70;;;;;;6015411;23;20026;-95
2021/05/07 15:12:37;;;;;;;6.75;1.50;;;21.40;39.10;;;;;;6014219;23;20015;-94
2021/05/07 15:15:15;;;;;;;4.15;2.20;;;22.30;34.50;;;;;;6036507;23;20022;-94
2021/05/07 15:17:49;;;;;;;5.07;1.30;;;23.80;32.60;;;;;;6041326;23;20015;-93
2021/05/07 15:20:19;;;;;;;8.88;1.70;;;25.30;31.10;;;;;;6058654;23;20011;-93
2021/05/07 15:22:49;;;;;;;2.65;1.30;;;26.40;30.00;;;;;;6014105;23;20015;-93
2021/05/07 15:25:18;;;;;;;2.13;1.02;;;27.20;29.70;;;;;;6037909;23;20011;-94
2021/05/07 15:27:47;;;;;;;5.53;1.42;;;27.10;28.60;;;;;;6022024;23;20022;-93
2021/05/07 15:30:20;;;;;;;2.55;1.30;;;26.90;28.80;;;;;;6021794;23;20011;-94
2021/05/07 15:32:48;;;;;;;3.42;1.30;;;25.50;28.70;;;;;;6021388;23;20010;-96
2021/05/07 15:35:15;;;;;;;2.50;1.10;;;21.40;31.60;;;;;;6020431;23;19999;-96
2021/05/07 15:37:48;;;;;;;4.13;1.10;;;18.90;35.10;;;;;;5996229;23;20015;-96
2021/05/07 15:40:23;;;;;;;2.38;1.30;;;18.30;37.30;;;;;;5994234;23;20018;-96
2021/05/07 15:42:59;;;;;;;4.07;1.35;;;19.10;36.00;;;;;;6018194;23;20015;-96
2021/05/07 15:45:27;;;;;;;3.67;1.35;;;19.10;35.90;;;;;;6017456;23;20011;-96
2021/05/07 15:48:00;;;;;;;2.92;1.40;;;20.00;35.70;;;;;;6038355;23;20015;-95
2021/05/07 15:50:31;;;;;;;3.83;1.20;;;20.80;34.20;;;;;;6037275;23;20031;-96
2021/05/07 15:53:03;;;;;;;3.67;1.50;;;20.00;35.80;;;;;;6018693;23;20075;-96
2021/05/07 15:55:32;;;;;;;6.10;1.73;;;18.90;38.50;;;;;;6018588;23;20011;-96
2021/05/07 15:58:09;;;;;;;5.78;1.42;;;19.40;39.00;;;;;;6040188;23;20019;-96
2021/05/07 16:00:40;;;;;;;4.22;1.90;;;19.50;38.00;;;;;;6043170;23;20011;-96
2021/05/07 16:03:17;;;;;;;3.33;1.30;;;18.80;38.70;;;;;;6068439;23;20010;-96
2021/05/07 16:05:50;;;;;;;3.65;1.70;;;18.50;39.80;;;;;;6015201;23;20011;-85
2021/05/07 16:08:22;;;;;;;4.43;1.45;;;17.70;40.80;;;;;;6068767;23;20018;-94
2021/05/07 16:10:53;;;;;;;3.50;1.45;;;18.10;40.00;;;;;;6043549;23;20018;-96
2021/05/07 16:13:27;;;;;;;2.75;1.10;;;18.40;39.50;;;;;;6044829;23;20331;-96
2021/05/07 16:16:04;;;;;;;3.53;1.30;;;18.70;38.80;;;;;;6043643;23;20011;-96
2021/05/07 16:18:36;;;;;;;5.95;1.38;;;19.00;38.20;;;;;;6042319;23;20010;-96
2021/05/07 16:21:06;;;;;;;2.95;1.45;;;18.50;38.50;;;;;;6040256;23;20026;-96
2021/05/07 16:23:37;;;;;;;3.90;1.38;;;17.20;40.00;;;;;;6014236;23;20022;-96
2021/05/07 16:26:10;;;;;;;5.47;1.77;;;16.20;42.40;;;;;;6015603;23;20094;-96
2021/05/07 16:28:42;;;;;;;3.25;1.13;;;16.10;43.10;;;;;;6012267;23;20015;-96
2021/05/07 16:31:13;;;;;;;3.15;1.30;;;16.80;41.70;;;;;;6035945;23;20018;-96
2021/05/07 16:33:43;;;;;;;3.63;1.10;;;17.30;40.90;;;;;;6037039;23;20064;-96
2021/05/07 16:36:11;;;;;;;3.67;1.48;;;18.20;39.90;;;;;;6015117;23;20081;-96
2021/05/07 16:38:42;;;;;;;2.50;1.30;;;18.60;39.00;;;;;;6038823;23;20019;-96
2021/05/07 16:41:23;;;;;;;2.50;1.27;;;19.10;38.40;;;;;;6038274;23;20026;-96
2021/05/07 16:43:56;;;;;;;2.58;1.20;;;19.30;37.10;;;;;;6039643;23;20015;-96
2021/05/07 16:46:26;;;;;;;3.40;1.50;;;18.30;38.80;;;;;;6036841;23;20015;-96
2021/05/07 16:49:00;;;;;;;5.13;1.50;;;18.40;39.20;;;;;;6013365;23;20023;-96
2021/05/07 16:51:38;;;;;;;2.55;1.35;;;18.50;37.70;;;;;;6040273;23;20003;-96
2021/05/07 16:54:07;;;;;;;3.08;1.42;;;18.10;38.10;;;;;;6040731;23;20022;-96
2021/05/07 16:56:39;;;;;;;3.00;1.08;;;17.80;38.40;;;;;;6040678;23;20015;-96
2021/05/07 16:59:18;;;;;;;2.25;1.23;;;17.50;39.20;;;;;;6065082;23;20015;-96
2021/05/07 17:01:53;;;;;;;3.58;1.15;;;17.80;39.10;;;;;;6035846;23;20244;-96
2021/05/07 17:04:21;;;;;;;3.60;1.45;;;18.70;38.20;;;;;;6036381;23;20019;-96
2021/05/07 17:06:49;;;;;;;2.95;1.17;;;18.40;38.40;;;;;;6033127;23;20019;-96
2021/05/07 17:09:17;;;;;;;2.88;1.27;;;18.00;39.10;;;;;;6059228;23;20046;-96
2021/05/07 17:11:46;;;;;;;2.63;1.23;;;17.40;40.10;;;;;;6010162;23;20303;-96
2021/05/07 17:20:11;;;;;;;3.47;1.13;;;15.50;44.60;;;;;;6085238;23;20011;-95
2021/05/07 17:22:46;;;;;;;2.38;1.20;;;16.20;43.80;;;;;;6072195;23;20002;-96
2021/05/07 17:25:37;;;;;;;2.97;1.30;;;17.20;42.80;;;;;;6073465;23;20034;-96
2021/05/07 17:28:05;;;;;;;3.83;1.55;;;18.10;42.40;;;;;;6073030;23;20007;-96
2021/05/07 17:30:40;;;;;;;6.82;1.48;;;18.30;41.90;;;;;;6072794;23;20011;-96
2021/05/07 17:33:10;;;;;;;3.70;1.55;;;17.80;43.00;;;;;;6068771;23;20022;-96
2021/05/07 17:35:38;;;;;;;3.40;1.70;;;16.70;44.80;;;;;;6045067;23;20018;-96
2021/05/07 17:38:06;;;;;;;3.90;1.77;;;15.40;47.30;;;;;;6070301;23;20018;-96
2021/05/07 17:40:33;;;;;;;2.58;1.40;;;14.60;49.40;;;;;;6047651;23;20006;-96
2021/05/07 17:43:04;;;;;;;8.30;2.22;;;13.90;51.60;;;;;;6042365;23;20029;-96
2021/05/07 17:45:32;;;;;;;6.70;1.95;;;13.50;53.60;;;;;;6025754;23;20003;-96
2021/05/07 17:48:01;;;;;;;4.60;2.03;;;13.00;54.60;;;;;;6026263;23;20018;-96
2021/05/07 17:50:35;;;;;;;4.78;2.13;;;12.80;55.30;;;;;;6027131;23;20018;-96
2021/05/07 17:53:04;;;;;;;3.15;1.50;;;12.60;56.20;;;;;;6072198;23;20010;-96
2021/05/07 17:55:32;;;;;;;;;;;12.60;56.90;;;;;;6026742;23;20042;-88
2021/05/07 17:58:00;;;;;;;5.18;2.20;;;12.40;57.70;;;;;;6049941;23;19910;-96
2021/05/07 18:00:29;;;;;;;3.30;1.90;;;12.40;58.00;;;;;;6073626;23;20021;-96
2021/05/07 18:02:58;;;;;;;2.65;1.52;;;12.30;58.60;;;;;;6051463;23;20010;-96
2021/05/07 18:05:28;;;;;;;6.50;2.35;;;12.40;58.50;;;;;;6049585;23;20054;-96
2021/05/07 18:07:59;;;;;;;4.70;2.13;;;12.30;59.20;;;;;;6096627;23;19999;-96
2021/05/07 18:10:29;;;;;;;4.50;2.60;;;12.10;59.30;;;;;;6074106;23;20007;-96
2021/05/07 18:12:59;;;;;;;4.50;1.73;;;12.00;60.70;;;;;;6075096;23;20014;-96
2021/05/07 18:15:57;;;;;;;2.97;1.90;;;11.70;61.90;;;;;;6051955;23;20022;-96
2021/05/07 18:18:26;;;;;;;3.90;2.25;;;11.60;62.60;;;;;;6020389;23;20043;-96
2021/05/07 18:20:56;;;;;;;8.18;1.85;;;11.20;64.50;;;;;;6106020;23;20030;-96
2021/05/07 18:23:24;;;;;;;3.58;1.80;;;11.10;65.90;;;;;;6097357;23;20038;-96
2021/05/07 18:25:58;;;;;;;3.67;1.70;;;10.90;68.50;;;;;;6051822;23;20009;-96
2021/05/07 18:28:34;;;;;;;4.28;2.03;;;10.70;71.10;;;;;;6075878;23;20265;-96
2021/05/07 18:33:49;;;;;;;6.80;2.20;;;10.70;74.40;;;;;;6047681;23;20023;-96
2021/05/07 18:36:17;;;;;;;4.85;2.35;;;10.60;76.40;;;;;;6018523;23;20011;-96
2021/05/07 18:38:46;;;;;;;6.00;2.17;;;10.60;77.50;;;;;;6018479;23;20023;-96
2021/05/07 18:41:19;;;;;;;3.90;1.95;;;10.70;76.70;;;;;;6018161;23;20018;-96
2021/05/07 18:43:50;;;;;;;6.03;2.22;;;10.80;77.60;;;;;;6040710;23;20004;-96
2021/05/07 18:58:03;;;;;;;4.00;2.00;;;10.90;77.80;;;;;;5968408;23;20194;-80
